sensor_id;sensor_type;location;lat;lon;timestamp;pressure;altitude;pressure_sealevel;temperature;humidity
39793;BME280;26080;42.264;24.536;2022-12-20T00:02:06;101618.88;;;0.25;100.00
39793;BME280;26080;42.264;24.536;2022-12-20T00:04:31;101614.38;;;0.18;100.00
39793;BME280;26080;42.264;24.536;2022-12-20T00:06:57;101609.75;;;0.08;100.00
39793;BME280;26080;42.264;24.536;2022-12-20T00:09:23;101606.22;;;0.05;100.00
39793;BME280;26080;42.264;24.536;2022-12-20T00:11:49;101600.00;;;-0.01;100.00
39793;BME280;26080;42.264;24.536;2022-12-20T00:14:15;101617.44;;;0.07;100.00
39793;BME280;26080;42.264;24.536;2022-12-20T00:16:41;101616.66;;;0.09;100.00
39793;BME280;26080;42.264;24.536;2022-12-20T00:19:06;101602.53;;;-0.02;100.00
39793;BME280;26080;42.264;24.536;2022-12-20T00:21:33;101609.75;;;0.08;100.00
39793;BME280;26080;42.264;24.536;2022-12-20T00:23:58;101611.41;;;0.06;100.00
39793;BME280;26080;42.264;24.536;2022-12-20T00:26:26;101620.63;;;-0.01;100.00
39793;BME280;26080;42.264;24.536;2022-12-20T00:28:53;101607.56;;;-0.07;100.00
39793;BME280;26080;42.264;24.536;2022-12-20T00:31:19;101605.34;;;0.04;100.00
39793;BME280;26080;42.264;24.536;2022-12-20T00:33:47;101612.09;;;0.01;100.00
39793;BME280;26080;42.264;24.536;2022-12-20T00:36:13;101610.56;;;0.07;100.00
39793;BME280;26080;42.264;24.536;2022-12-20T00:38:39;101588.75;;;-0.04;100.00
39793;BME280;26080;42.264;24.536;2022-12-20T00:41:15;101614.91;;;0.08;100.00
39793;BME280;26080;42.264;24.536;2022-12-20T00:43:41;101612.84;;;-0.02;100.00
39793;BME280;26080;42.264;24.536;2022-12-20T00:46:08;101574.47;;;-0.21;100.00
39793;BME280;26080;42.264;24.536;2022-12-20T00:48:35;101601.34;;;-0.13;100.00
39793;BME280;26080;42.264;24.536;2022-12-20T00:51:06;101575.78;;;-0.33;100.00
39793;BME280;26080;42.264;24.536;2022-12-20T00:53:32;101607.97;;;-0.20;100.00
39793;BME280;26080;42.264;24.536;2022-12-20T00:55:58;101595.25;;;-0.15;100.00
39793;BME280;26080;42.264;24.536;2022-12-20T00:58:24;101591.84;;;-0.14;100.00
39793;BME280;26080;42.264;24.536;2022-12-20T01:00:49;101597.13;;;-0.11;100.00
39793;BME280;26080;42.264;24.536;2022-12-20T01:03:15;101585.72;;;-0.18;100.00
39793;BME280;26080;42.264;24.536;2022-12-20T01:05:52;101569.09;;;-0.27;100.00
39793;BME280;26080;42.264;24.536;2022-12-20T01:08:18;101586.59;;;-0.17;100.00
39793;BME280;26080;42.264;24.536;2022-12-20T01:10:43;101592.38;;;-0.24;100.00
39793;BME280;26080;42.264;24.536;2022-12-20T01:13:09;101570.00;;;-0.27;100.00
39793;BME280;26080;42.264;24.536;2022-12-20T01:15:34;101576.03;;;-0.26;100.00
39793;BME280;26080;42.264;24.536;2022-12-20T01:18:00;101573.31;;;-0.30;100.00
39793;BME280;26080;42.264;24.536;2022-12-20T01:20:25;101575.25;;;-0.24;100.00
39793;BME280;26080;42.264;24.536;2022-12-20T01:22:51;101551.63;;;-0.38;100.00
39793;BME280;26080;42.264;24.536;2022-12-20T01:25:16;101566.22;;;-0.37;100.00
39793;BME280;26080;42.264;24.536;2022-12-20T01:27:41;101570.16;;;-0.48;100.00
39793;BME280;26080;42.264;24.536;2022-12-20T01:30:07;101563.03;;;-0.55;100.00
39793;BME280;26080;42.264;24.536;2022-12-20T01:32:33;101563.84;;;-0.56;100.00
39793;BME280;26080;42.264;24.536;2022-12-20T01:34:58;101553.97;;;-0.69;100.00
39793;BME280;26080;42.264;24.536;2022-12-20T01:37:24;101559.34;;;-0.63;100.00
39793;BME280;26080;42.264;24.536;2022-12-20T01:39:49;101554.66;;;-0.75;100.00
39793;BME280;26080;42.264;24.536;2022-12-20T01:42:15;101522.56;;;-0.84;100.00
39793;BME280;26080;42.264;24.536;2022-12-20T01:47:06;101548.81;;;-0.69;100.00
39793;BME280;26080;42.264;24.536;2022-12-20T01:49:38;101542.09;;;-0.66;100.00
39793;BME280;26080;42.264;24.536;2022-12-20T01:52:10;101530.72;;;-0.72;100.00
39793;BME280;26080;42.264;24.536;2022-12-20T01:55:04;101533.19;;;-0.75;100.00
39793;BME280;26080;42.264;24.536;2022-12-20T01:57:39;101531.22;;;-0.82;100.00
39793;BME280;26080;42.264;24.536;2022-12-20T02:00:07;101521.56;;;-0.90;100.00
39793;BME280;26080;42.264;24.536;2022-12-20T02:02:34;101464.59;;;-1.24;100.00
39793;BME280;26080;42.264;24.536;2022-12-20T02:05:00;101513.50;;;-0.99;100.00
39793;BME280;26080;42.264;24.536;2022-12-20T02:07:30;101482.13;;;-1.14;100.00
39793;BME280;26080;42.264;24.536;2022-12-20T02:09:58;101491.63;;;-1.11;100.00
39793;BME280;26080;42.264;24.536;2022-12-20T02:12:31;101513.91;;;-1.12;100.00
39793;BME280;26080;42.264;24.536;2022-12-20T02:21:11;101501.84;;;-0.89;100.00
39793;BME280;26080;42.264;24.536;2022-12-20T02:34:28;101485.19;;;-1.24;100.00
39793;BME280;26080;42.264;24.536;2022-12-20T02:36:55;101495.59;;;-1.21;100.00
39793;BME280;26080;42.264;24.536;2022-12-20T02:39:22;101470.91;;;-1.40;100.00
39793;BME280;26080;42.264;24.536;2022-12-20T02:42:11;101492.75;;;-1.29;100.00
39793;BME280;26080;42.264;24.536;2022-12-20T02:45:08;101499.25;;;-1.38;100.00
39793;BME280;26080;42.264;24.536;2022-12-20T02:50:23;101493.56;;;-1.54;100.00
39793;BME280;26080;42.264;24.536;2022-12-20T02:52:51;101494.38;;;-1.55;100.00
39793;BME280;26080;42.264;24.536;2022-12-20T02:55:21;101495.44;;;-1.50;100.00
39793;BME280;26080;42.264;24.536;2022-12-20T02:57:59;101498.97;;;-1.46;100.00
39793;BME280;26080;42.264;24.536;2022-12-20T03:00:32;101497.19;;;-1.48;100.00
39793;BME280;26080;42.264;24.536;2022-12-20T03:02:58;101481.06;;;-1.67;100.00
39793;BME280;26080;42.264;24.536;2022-12-20T03:05:44;101490.72;;;-1.61;100.00
39793;BME280;26080;42.264;24.536;2022-12-20T03:08:11;101497.13;;;-1.50;100.00
39793;BME280;26080;42.264;24.536;2022-12-20T03:10:36;101481.16;;;-1.41;100.00
39793;BME280;26080;42.264;24.536;2022-12-20T03:13:05;101482.22;;;-1.36;100.00
39793;BME280;26080;42.264;24.536;2022-12-20T03:15:30;101487.88;;;-1.45;100.00
39793;BME280;26080;42.264;24.536;2022-12-20T03:17:56;101468.56;;;-1.58;100.00
39793;BME280;26080;42.264;24.536;2022-12-20T03:20:21;101473.81;;;-1.55;100.00
39793;BME280;26080;42.264;24.536;2022-12-20T03:22:46;101476.69;;;-1.47;100.00
39793;BME280;26080;42.264;24.536;2022-12-20T03:25:12;101470.03;;;-1.40;100.00
39793;BME280;26080;42.264;24.536;2022-12-20T03:27:37;101468.53;;;-1.35;100.00
39793;BME280;26080;42.264;24.536;2022-12-20T03:30:04;101474.25;;;-1.42;100.00
39793;BME280;26080;42.264;24.536;2022-12-20T03:32:29;101473.91;;;-1.52;100.00
39793;BME280;26080;42.264;24.536;2022-12-20T03:34:55;101475.56;;;-1.54;100.00
39793;BME280;26080;42.264;24.536;2022-12-20T03:37:20;101470.06;;;-1.64;100.00
39793;BME280;26080;42.264;24.536;2022-12-20T03:39:46;101470.84;;;-1.65;100.00
39793;BME280;26080;42.264;24.536;2022-12-20T03:42:11;101477.69;;;-1.66;100.00
39793;BME280;26080;42.264;24.536;2022-12-20T03:44:37;101479.22;;;-1.71;100.00
39793;BME280;26080;42.264;24.536;2022-12-20T03:47:02;101484.72;;;-1.84;100.00
39793;BME280;26080;42.264;24.536;2022-12-20T03:49:28;101486.66;;;-2.01;100.00
39793;BME280;26080;42.264;24.536;2022-12-20T03:51:53;101485.53;;;-2.08;100.00
39793;BME280;26080;42.264;24.536;2022-12-20T03:54:19;101476.44;;;-1.99;100.00
39793;BME280;26080;42.264;24.536;2022-12-20T03:56:44;101480.53;;;-2.04;100.00
39793;BME280;26080;42.264;24.536;2022-12-20T03:59:09;101480.81;;;-2.19;100.00
39793;BME280;26080;42.264;24.536;2022-12-20T04:01:35;101485.75;;;-2.24;100.00
39793;BME280;26080;42.264;24.536;2022-12-20T04:04:03;101478.81;;;-2.26;100.00
39793;BME280;26080;42.264;24.536;2022-12-20T04:06:29;101476.03;;;-2.32;100.00
39793;BME280;26080;42.264;24.536;2022-12-20T04:08:55;101435.19;;;-2.70;100.00
39793;BME280;26080;42.264;24.536;2022-12-20T04:11:20;101457.09;;;-2.57;100.00
39793;BME280;26080;42.264;24.536;2022-12-20T04:13:51;101476.47;;;-2.43;100.00
39793;BME280;26080;42.264;24.536;2022-12-20T04:16:22;101477.22;;;-2.45;100.00
39793;BME280;26080;42.264;24.536;2022-12-20T04:18:48;101477.34;;;-2.42;100.00
39793;BME280;26080;42.264;24.536;2022-12-20T04:21:14;101427.66;;;-2.65;100.00
39793;BME280;26080;42.264;24.536;2022-12-20T04:23:41;101477.41;;;-2.41;100.00
39793;BME280;26080;42.264;24.536;2022-12-20T04:26:09;101481.59;;;-2.43;100.00
39793;BME280;26080;42.264;24.536;2022-12-20T04:28:35;101484.22;;;-2.41;100.00
39793;BME280;26080;42.264;24.536;2022-12-20T04:31:01;101447.44;;;-2.62;100.00
39793;BME280;26080;42.264;24.536;2022-12-20T04:33:26;101473.03;;;-2.43;100.00
39793;BME280;26080;42.264;24.536;2022-12-20T04:35:53;101451.19;;;-2.54;100.00
39793;BME280;26080;42.264;24.536;2022-12-20T04:38:20;101467.69;;;-2.48;100.00
39793;BME280;26080;42.264;24.536;2022-12-20T04:40:49;101477.84;;;-2.30;100.00
39793;BME280;26080;42.264;24.536;2022-12-20T04:43:16;101487.97;;;-2.33;100.00
39793;BME280;26080;42.264;24.536;2022-12-20T04:45:43;101483.47;;;-2.39;100.00
39793;BME280;26080;42.264;24.536;2022-12-20T04:48:10;101484.81;;;-2.26;100.00
39793;BME280;26080;42.264;24.536;2022-12-20T04:50:36;101484.41;;;-2.36;100.00
39793;BME280;26080;42.264;24.536;2022-12-20T04:53:02;101485.59;;;-2.49;100.00
39793;BME280;26080;42.264;24.536;2022-12-20T04:55:47;101478.38;;;-2.59;100.00
39793;BME280;26080;42.264;24.536;2022-12-20T04:58:12;101478.91;;;-2.66;100.00
39793;BME280;26080;42.264;24.536;2022-12-20T05:00:37;101482.19;;;-2.71;100.00
39793;BME280;26080;42.264;24.536;2022-12-20T05:03:03;101486.72;;;-2.63;100.00
39793;BME280;26080;42.264;24.536;2022-12-20T05:05:28;101481.75;;;-2.60;100.00
39793;BME280;26080;42.264;24.536;2022-12-20T05:07:54;101480.66;;;-2.65;100.00
39793;BME280;26080;42.264;24.536;2022-12-20T05:10:20;101476.34;;;-2.66;100.00
39793;BME280;26080;42.264;24.536;2022-12-20T05:12:46;101481.53;;;-2.65;100.00
39793;BME280;26080;42.264;24.536;2022-12-20T05:15:11;101473.72;;;-2.68;100.00
39793;BME280;26080;42.264;24.536;2022-12-20T05:17:37;101430.69;;;-2.96;100.00
39793;BME280;26080;42.264;24.536;2022-12-20T05:20:04;101474.38;;;-2.74;100.00
39793;BME280;26080;42.264;24.536;2022-12-20T05:22:30;101479.09;;;-2.83;100.00
39793;BME280;26080;42.264;24.536;2022-12-20T05:25:14;101450.94;;;-3.02;100.00
39793;BME280;26080;42.264;24.536;2022-12-20T05:27:58;101471.34;;;-2.84;100.00
39793;BME280;26080;42.264;24.536;2022-12-20T05:30:24;101477.25;;;-2.87;100.00
39793;BME280;26080;42.264;24.536;2022-12-20T05:32:50;101441.44;;;-3.05;100.00
39793;BME280;26080;42.264;24.536;2022-12-20T05:35:15;101476.28;;;-2.89;100.00
39793;BME280;26080;42.264;24.536;2022-12-20T05:37:41;101448.25;;;-3.05;100.00
39793;BME280;26080;42.264;24.536;2022-12-20T05:40:07;101449.19;;;-3.03;100.00
39793;BME280;26080;42.264;24.536;2022-12-20T05:42:33;101470.22;;;-2.91;100.00
39793;BME280;26080;42.264;24.536;2022-12-20T05:44:58;101476.97;;;-2.93;100.00
39793;BME280;26080;42.264;24.536;2022-12-20T05:47:25;101472.22;;;-2.84;100.00
39793;BME280;26080;42.264;24.536;2022-12-20T05:49:51;101472.22;;;-2.84;100.00
39793;BME280;26080;42.264;24.536;2022-12-20T05:52:16;101474.75;;;-2.85;100.00
39793;BME280;26080;42.264;24.536;2022-12-20T05:54:41;101473.72;;;-2.89;100.00
39793;BME280;26080;42.264;24.536;2022-12-20T05:57:07;101476.22;;;-2.90;100.00
39793;BME280;26080;42.264;24.536;2022-12-20T05:59:32;101474.28;;;-2.96;100.00
39793;BME280;26080;42.264;24.536;2022-12-20T06:01:58;101480.34;;;-2.94;100.00
39793;BME280;26080;42.264;24.536;2022-12-20T06:04:23;101477.97;;;-2.89;100.00
39793;BME280;26080;42.264;24.536;2022-12-20T06:06:49;101476.38;;;-2.87;100.00
39793;BME280;26080;42.264;24.536;2022-12-20T06:09:14;101475.34;;;-2.91;100.00
39793;BME280;26080;42.264;24.536;2022-12-20T06:11:39;101475.63;;;-2.85;100.00
39793;BME280;26080;42.264;24.536;2022-12-20T06:14:05;101474.22;;;-2.77;100.00
39793;BME280;26080;42.264;24.536;2022-12-20T06:16:30;101476.13;;;-2.73;100.00
39793;BME280;26080;42.264;24.536;2022-12-20T06:18:56;101477.31;;;-2.85;100.00
39793;BME280;26080;42.264;24.536;2022-12-20T06:21:22;101476.38;;;-2.87;100.00
39793;BME280;26080;42.264;24.536;2022-12-20T06:23:47;101476.97;;;-2.93;100.00
39793;BME280;26080;42.264;24.536;2022-12-20T06:26:13;101479.34;;;-2.77;100.00
39793;BME280;26080;42.264;24.536;2022-12-20T06:28:39;101483.84;;;-2.92;100.00
39793;BME280;26080;42.264;24.536;2022-12-20T06:31:08;101479.81;;;-2.87;100.00
39793;BME280;26080;42.264;24.536;2022-12-20T06:33:34;101482.94;;;-2.73;100.00
39793;BME280;26080;42.264;24.536;2022-12-20T06:36:00;101477.00;;;-2.72;100.00
39793;BME280;26080;42.264;24.536;2022-12-20T06:38:26;101476.78;;;-2.77;100.00
39793;BME280;26080;42.264;24.536;2022-12-20T06:40:51;101479.34;;;-2.77;100.00
39793;BME280;26080;42.264;24.536;2022-12-20T06:43:16;101454.75;;;-2.92;100.00
39793;BME280;26080;42.264;24.536;2022-12-20T06:45:42;101477.88;;;-2.72;100.00
39793;BME280;26080;42.264;24.536;2022-12-20T06:48:07;101477.50;;;-2.60;100.00
39793;BME280;26080;42.264;24.536;2022-12-20T06:50:33;101480.22;;;-2.55;100.00
39793;BME280;26080;42.264;24.536;2022-12-20T06:52:59;101453.75;;;-2.75;100.00
39793;BME280;26080;42.264;24.536;2022-12-20T06:55:24;101477.56;;;-2.58;100.00
39793;BME280;26080;42.264;24.536;2022-12-20T06:57:49;101476.41;;;-2.44;100.00
39793;BME280;26080;42.264;24.536;2022-12-20T07:00:15;101468.50;;;-2.49;100.00
39793;BME280;26080;42.264;24.536;2022-12-20T07:02:41;101468.34;;;-2.53;100.00
39793;BME280;26080;42.264;24.536;2022-12-20T07:05:06;101467.63;;;-2.49;100.00
39793;BME280;26080;42.264;24.536;2022-12-20T07:07:32;101470.91;;;-2.53;100.00
39793;BME280;26080;42.264;24.536;2022-12-20T07:09:57;101473.59;;;-2.50;100.00
39793;BME280;26080;42.264;24.536;2022-12-20T07:12:23;101466.59;;;-2.54;100.00
39793;BME280;26080;42.264;24.536;2022-12-20T07:14:49;101467.44;;;-2.33;100.00
39793;BME280;26080;42.264;24.536;2022-12-20T07:17:15;101421.84;;;-2.61;100.00
39793;BME280;26080;42.264;24.536;2022-12-20T07:19:41;101466.69;;;-2.30;100.00
39793;BME280;26080;42.264;24.536;2022-12-20T07:22:06;101457.28;;;-2.30;100.00
39793;BME280;26080;42.264;24.536;2022-12-20T07:24:32;101450.81;;;-2.20;100.00
39793;BME280;26080;42.264;24.536;2022-12-20T07:26:58;101451.56;;;-2.23;100.00
39793;BME280;26080;42.264;24.536;2022-12-20T07:29:24;101450.69;;;-2.23;100.00
39793;BME280;26080;42.264;24.536;2022-12-20T07:31:50;101436.09;;;-2.24;100.00
39793;BME280;26080;42.264;24.536;2022-12-20T07:34:16;101432.06;;;-2.19;100.00
39793;BME280;26080;42.264;24.536;2022-12-20T07:36:41;101440.84;;;-2.13;100.00
39793;BME280;26080;42.264;24.536;2022-12-20T07:39:07;101430.56;;;-2.13;100.00
39793;BME280;26080;42.264;24.536;2022-12-20T07:41:33;101390.56;;;-2.30;100.00
39793;BME280;26080;42.264;24.536;2022-12-20T07:43:59;101436.22;;;-1.99;100.00
39793;BME280;26080;42.264;24.536;2022-12-20T07:46:25;101435.00;;;-1.86;100.00
39793;BME280;26080;42.264;24.536;2022-12-20T07:48:51;101426.00;;;-1.97;100.00
39793;BME280;26080;42.264;24.536;2022-12-20T07:51:26;101448.81;;;-1.83;100.00
39793;BME280;26080;42.264;24.536;2022-12-20T07:54:15;101442.22;;;-1.76;100.00
39793;BME280;26080;42.264;24.536;2022-12-20T07:56:45;101441.41;;;-1.75;100.00
39793;BME280;26080;42.264;24.536;2022-12-20T07:59:14;101441.44;;;-1.73;100.00
39793;BME280;26080;42.264;24.536;2022-12-20T08:01:41;101431.22;;;-1.72;100.00
39793;BME280;26080;42.264;24.536;2022-12-20T08:04:12;101434.00;;;-1.66;100.00
39793;BME280;26080;42.264;24.536;2022-12-20T08:06:39;101440.47;;;-1.53;100.00
39793;BME280;26080;42.264;24.536;2022-12-20T08:09:07;101435.22;;;-1.32;100.00
39793;BME280;26080;42.264;24.536;2022-12-20T08:11:36;101427.88;;;-1.22;100.00
39793;BME280;26080;42.264;24.536;2022-12-20T08:14:05;101434.53;;;-1.27;100.00
39793;BME280;26080;42.264;24.536;2022-12-20T08:16:32;101425.84;;;-1.30;100.00
39793;BME280;26080;42.264;24.536;2022-12-20T08:18:58;101430.25;;;-1.26;100.00
39793;BME280;26080;42.264;24.536;2022-12-20T08:21:23;101423.47;;;-1.24;100.00
39793;BME280;26080;42.264;24.536;2022-12-20T08:23:48;101424.03;;;-1.09;100.00
39793;BME280;26080;42.264;24.536;2022-12-20T08:26:14;101421.91;;;-0.95;100.00
39793;BME280;26080;42.264;24.536;2022-12-20T08:28:39;101386.16;;;-1.13;100.00
39793;BME280;26080;42.264;24.536;2022-12-20T08:31:07;101419.00;;;-0.79;100.00
39793;BME280;26080;42.264;24.536;2022-12-20T08:33:35;101420.44;;;-0.87;100.00
39793;BME280;26080;42.264;24.536;2022-12-20T08:36:03;101416.47;;;-0.77;100.00
39793;BME280;26080;42.264;24.536;2022-12-20T08:38:29;101409.00;;;-0.70;100.00
39793;BME280;26080;42.264;24.536;2022-12-20T08:41:03;101415.22;;;-0.63;100.00
39793;BME280;26080;42.264;24.536;2022-12-20T08:43:30;101415.38;;;-0.30;100.00
39793;BME280;26080;42.264;24.536;2022-12-20T08:45:55;101409.34;;;-0.31;100.00
39793;BME280;26080;42.264;24.536;2022-12-20T08:48:21;101408.97;;;-0.43;100.00
39793;BME280;26080;42.264;24.536;2022-12-20T08:50:47;101384.50;;;-0.57;100.00
39793;BME280;26080;42.264;24.536;2022-12-20T08:53:12;101394.19;;;-0.50;100.00
39793;BME280;26080;42.264;24.536;2022-12-20T08:55:40;101390.63;;;-0.26;100.00
39793;BME280;26080;42.264;24.536;2022-12-20T08:58:06;101394.06;;;-0.26;100.00
39793;BME280;26080;42.264;24.536;2022-12-20T09:00:31;101395.06;;;-0.21;100.00
39793;BME280;26080;42.264;24.536;2022-12-20T09:02:57;101389.81;;;-0.24;100.00
39793;BME280;26080;42.264;24.536;2022-12-20T09:05:23;101367.38;;;-0.28;100.00
39793;BME280;26080;42.264;24.536;2022-12-20T09:07:49;101377.16;;;-0.16;100.00
39793;BME280;26080;42.264;24.536;2022-12-20T09:10:14;101351.41;;;-0.16;100.00
39793;BME280;26080;42.264;24.536;2022-12-20T09:12:40;101372.34;;;-0.04;100.00
39793;BME280;26080;42.264;24.536;2022-12-20T09:15:06;101362.84;;;-0.07;100.00
39793;BME280;26080;42.264;24.536;2022-12-20T09:17:34;101351.03;;;0.00;100.00
39793;BME280;26080;42.264;24.536;2022-12-20T09:20:00;101350.28;;;0.04;100.00
39793;BME280;26080;42.264;24.536;2022-12-20T09:22:28;101352.28;;;0.14;100.00
39793;BME280;26080;42.264;24.536;2022-12-20T09:24:54;101345.34;;;0.13;100.00
39793;BME280;26080;42.264;24.536;2022-12-20T09:27:20;101336.03;;;0.17;100.00
39793;BME280;26080;42.264;24.536;2022-12-20T09:29:46;101333.78;;;0.29;100.00
39793;BME280;26080;42.264;24.536;2022-12-20T09:32:12;101332.56;;;0.48;100.00
39793;BME280;26080;42.264;24.536;2022-12-20T09:34:37;101325.84;;;0.54;100.00
39793;BME280;26080;42.264;24.536;2022-12-20T09:37:03;101319.03;;;0.56;100.00
39793;BME280;26080;42.264;24.536;2022-12-20T09:39:28;101308.91;;;0.64;100.00
39793;BME280;26080;42.264;24.536;2022-12-20T09:41:54;101309.09;;;0.72;100.00
39793;BME280;26080;42.264;24.536;2022-12-20T09:44:26;101310.84;;;0.73;100.00
39793;BME280;26080;42.264;24.536;2022-12-20T09:47:03;101298.75;;;0.70;100.00
39793;BME280;26080;42.264;24.536;2022-12-20T09:49:33;101297.00;;;0.69;100.00
39793;BME280;26080;42.264;24.536;2022-12-20T10:00:40;101263.88;;;0.86;100.00
39793;BME280;26080;42.264;24.536;2022-12-20T10:03:30;101291.19;;;1.14;100.00
39793;BME280;26080;42.264;24.536;2022-12-20T10:06:10;101275.13;;;1.27;100.00
39793;BME280;26080;42.264;24.536;2022-12-20T10:09:18;101225.59;;;1.06;100.00
39793;BME280;26080;42.264;24.536;2022-12-20T10:12:09;101272.88;;;1.42;100.00
39793;BME280;26080;42.264;24.536;2022-12-20T10:14:53;101272.81;;;1.39;100.00
39793;BME280;26080;42.264;24.536;2022-12-20T10:25:22;101242.81;;;1.46;100.00
39793;BME280;26080;42.264;24.536;2022-12-20T10:27:50;101235.31;;;1.58;100.00
39793;BME280;26080;42.264;24.536;2022-12-20T10:30:23;101231.22;;;1.68;100.00
39793;BME280;26080;42.264;24.536;2022-12-20T10:32:51;101226.16;;;1.75;100.00
39793;BME280;26080;42.264;24.536;2022-12-20T10:35:46;101218.41;;;1.74;100.00
39793;BME280;26080;42.264;24.536;2022-12-20T10:38:13;101225.25;;;1.72;100.00
39793;BME280;26080;42.264;24.536;2022-12-20T10:43:21;101195.09;;;1.71;100.00
39793;BME280;26080;42.264;24.536;2022-12-20T10:46:06;101211.81;;;1.91;100.00
39793;BME280;26080;42.264;24.536;2022-12-20T10:48:39;101200.84;;;2.03;100.00
39793;BME280;26080;42.264;24.536;2022-12-20T10:53:49;101196.53;;;2.03;100.00
39793;BME280;26080;42.264;24.536;2022-12-20T10:56:21;101192.50;;;2.19;100.00
39793;BME280;26080;42.264;24.536;2022-12-20T10:58:58;101185.88;;;2.33;100.00
39793;BME280;26080;42.264;24.536;2022-12-20T11:01:28;101174.75;;;2.41;100.00
39793;BME280;26080;42.264;24.536;2022-12-20T11:06:27;101163.69;;;2.49;100.00
39793;BME280;26080;42.264;24.536;2022-12-20T11:08:53;101149.09;;;2.54;100.00
39793;BME280;26080;42.264;24.536;2022-12-20T11:11:21;101131.84;;;2.53;100.00
39793;BME280;26080;42.264;24.536;2022-12-20T11:13:48;101130.06;;;2.49;100.00
39793;BME280;26080;42.264;24.536;2022-12-20T11:16:28;101145.81;;;2.64;100.00
39793;BME280;26080;42.264;24.536;2022-12-20T11:24:05;101088.78;;;2.58;100.00
39793;BME280;26080;42.264;24.536;2022-12-20T11:35:06;101110.91;;;3.00;100.00
39793;BME280;26080;42.264;24.536;2022-12-20T11:37:57;101094.59;;;3.07;100.00
39793;BME280;26080;42.264;24.536;2022-12-20T11:43:10;101098.25;;;3.26;100.00
39793;BME280;26080;42.264;24.536;2022-12-20T11:51:14;101075.63;;;3.08;100.00
39793;BME280;26080;42.264;24.536;2022-12-20T11:57:03;101070.63;;;3.23;100.00
39793;BME280;26080;42.264;24.536;2022-12-20T12:00:04;101059.41;;;3.26;100.00
39793;BME280;26080;42.264;24.536;2022-12-20T12:02:36;101066.28;;;3.21;100.00
39793;BME280;26080;42.264;24.536;2022-12-20T12:05:05;101052.38;;;3.13;100.00
39793;BME280;26080;42.264;24.536;2022-12-20T12:07:33;101043.84;;;3.23;100.00
39793;BME280;26080;42.264;24.536;2022-12-20T12:12:30;101039.44;;;3.14;100.00
39793;BME280;26080;42.264;24.536;2022-12-20T12:17:37;101037.91;;;3.30;100.00
39793;BME280;26080;42.264;24.536;2022-12-20T12:20:19;101038.66;;;3.20;100.00
39793;BME280;26080;42.264;24.536;2022-12-20T12:22:48;101041.22;;;3.18;100.00
39793;BME280;26080;42.264;24.536;2022-12-20T12:25:17;101033.50;;;3.21;100.00
39793;BME280;26080;42.264;24.536;2022-12-20T12:27:43;100992.69;;;2.97;100.00
39793;BME280;26080;42.264;24.536;2022-12-20T12:30:15;101032.53;;;3.15;100.00
39793;BME280;26080;42.264;24.536;2022-12-20T12:32:52;101034.38;;;3.23;100.00
39793;BME280;26080;42.264;24.536;2022-12-20T12:38:28;101030.81;;;3.14;100.00
39793;BME280;26080;42.264;24.536;2022-12-20T12:43:51;100993.69;;;3.15;100.00
39793;BME280;26080;42.264;24.536;2022-12-20T12:46:23;101020.78;;;3.44;100.00
39793;BME280;26080;42.264;24.536;2022-12-20T12:48:59;101017.25;;;3.41;100.00
39793;BME280;26080;42.264;24.536;2022-12-20T12:51:36;101001.56;;;3.21;100.00
39793;BME280;26080;42.264;24.536;2022-12-20T12:56:47;101027.59;;;3.38;100.00
39793;BME280;26080;42.264;24.536;2022-12-20T12:59:20;101015.63;;;3.49;100.00
39793;BME280;26080;42.264;24.536;2022-12-20T13:10:01;101019.81;;;3.35;100.00
39793;BME280;26080;42.264;24.536;2022-12-20T13:17:58;101023.19;;;3.27;100.00
39793;BME280;26080;42.264;24.536;2022-12-20T13:25:38;101014.38;;;3.10;100.00
39793;BME280;26080;42.264;24.536;2022-12-20T13:38:54;101007.50;;;3.14;100.00
39793;BME280;26080;42.264;24.536;2022-12-20T13:41:27;101011.78;;;3.10;100.00
39793;BME280;26080;42.264;24.536;2022-12-20T13:43:57;101021.28;;;3.08;100.00
39793;BME280;26080;42.264;24.536;2022-12-20T13:49:39;101002.25;;;3.05;100.00
39793;BME280;26080;42.264;24.536;2022-12-20T13:54:41;101007.28;;;2.91;100.00
39793;BME280;26080;42.264;24.536;2022-12-20T13:57:08;101008.16;;;2.93;100.00
39793;BME280;26080;42.264;24.536;2022-12-20T13:59:38;101011.53;;;2.86;100.00
39793;BME280;26080;42.264;24.536;2022-12-20T14:02:11;101013.19;;;2.78;100.00
39793;BME280;26080;42.264;24.536;2022-12-20T14:04:45;101009.72;;;2.76;100.00
39793;BME280;26080;42.264;24.536;2022-12-20T14:07:16;101015.59;;;2.62;100.00
39793;BME280;26080;42.264;24.536;2022-12-20T14:09:46;101005.97;;;2.52;100.00
39793;BME280;26080;42.264;24.536;2022-12-20T14:12:18;101005.06;;;2.47;100.00
39793;BME280;26080;42.264;24.536;2022-12-20T14:14:48;100984.03;;;2.23;100.00
39793;BME280;26080;42.264;24.536;2022-12-20T14:19:45;100975.47;;;2.27;100.00
39793;BME280;26080;42.264;24.536;2022-12-20T14:22:11;100999.81;;;2.43;100.00
39793;BME280;26080;42.264;24.536;2022-12-20T14:24:41;100988.56;;;2.39;100.00
39793;BME280;26080;42.264;24.536;2022-12-20T14:27:11;100995.44;;;2.37;100.00
39793;BME280;26080;42.264;24.536;2022-12-20T14:29:39;101011.78;;;2.34;100.00
39793;BME280;26080;42.264;24.536;2022-12-20T14:32:14;100996.13;;;2.25;100.00
39793;BME280;26080;42.264;24.536;2022-12-20T14:34:41;101000.19;;;2.06;100.00
39793;BME280;26080;42.264;24.536;2022-12-20T14:37:36;100990.72;;;2.07;100.00
39793;BME280;26080;42.264;24.536;2022-12-20T14:42:37;100990.63;;;2.01;100.00
39793;BME280;26080;42.264;24.536;2022-12-20T14:45:18;100991.41;;;1.95;100.00
39793;BME280;26080;42.264;24.536;2022-12-20T14:50:23;100983.47;;;1.83;100.00